Weather History for Osceola Municipal, IA

Change the Weather History Date:

Thursday, November 22, 2012

  Actual Average (KLWD) Record (KLWD)
Temperature  
Mean Temperature 53 °F 36 °F  
Max Temperature 68 °F 45 °F 71 °F (1966)
Min Temperature 38 °F 27 °F 11 °F (1964)
Degree Days  
Heating Degree Days 12 29  
Month to date heating degree days 515  
Since 1 July heating degree days 999  
Cooling Degree Days 0 0  
Month to date cooling degree days 0  
Year to date cooling degree days 946  
Growing Degree Days 3 (Base 50)    
Moisture  
Dew Point 39 °F    
Average Humidity 57    
Maximum Humidity 75    
Minimum Humidity 34    
Precipitation  
Precipitation 0.00 in 0.05 in 0.75 in (1963)
Month to date precipitation 1.76  
Sea Level Pressure  
Sea Level Pressure 29.90 in    
Wind  
Wind Speed 15 mph (SW)    
Max Wind Speed 28 mph    
Max Gust Speed 36 mph    
Visibility 10 miles    
Events      
T = Trace of Precipitation, MM = Missing Value Source: NWS Daily Summary

Daily Weather History Graph

Daily Weather History Graph

Search for Another Location

Airport:

Trip Planner

Search our weather history database for the weather conditions in past years. The results will help you decide how hot, cold, wet, or windy it might be!

Date:

Astronomy

Nov. 22, 2012 Rise Set
Actual Time 7:11 AM CST 4:50 PM CST
Civil Twilight 6:41 AM CST 5:20 PM CST
Nautical Twilight 6:07 AM CST 5:54 PM CST
Astronomical Twilight 5:34 AM CST 6:27 PM CST
Moon 1:38 PM CST (11/22) 1:29 AM CST (11/22)
Length of Visible Light 10h 39m
Length of Day
9h 39m
Waxing Gibbous, 71% of the Moon is Illuminated
Nov 22
Waxing Gibbous
Nov 28
Full
Dec 6
Last Quarter
Dec 13
New
Dec 19
First Quarter

Hourly Weather History & Observations

Time (CST) Temp. Windchill Dew Point Humidity Pressure Visibility Wind Dir Wind Speed Gust Speed Precip Events Conditions
12:15 AM 55.6 °F - 38.8 °F 53% 29.91 in 10.0 mi South 18.4 mph 24.2 mph N/A   Clear
12:35 AM 55.6 °F - 38.5 °F 53% 29.90 in 10.0 mi South 17.3 mph 21.9 mph N/A   Clear
12:55 AM 54.7 °F - 38.3 °F 54% 29.90 in 10.0 mi South 15.0 mph - N/A   Clear
1:15 AM 54.5 °F - 38.3 °F 54% 29.89 in 10.0 mi South 12.7 mph - N/A   Clear
1:35 AM 53.6 °F - 37.9 °F 55% 29.89 in 10.0 mi South 11.5 mph - N/A   Clear
1:55 AM 53.6 °F - 37.8 °F 55% 29.88 in 10.0 mi South 13.8 mph 19.6 mph N/A   Clear
2:15 AM 53.6 °F - 37.8 °F 55% 29.87 in 10.0 mi South 15.0 mph - N/A   Clear
2:35 AM 54.1 °F - 37.6 °F 54% 29.86 in 10.0 mi South 15.0 mph - N/A   Clear
2:55 AM 53.6 °F - 37.8 °F 55% 29.85 in 10.0 mi South 13.8 mph 19.6 mph N/A   Clear
3:15 AM 54.5 °F - 37.9 °F 54% 29.85 in 10.0 mi South 13.8 mph - N/A   Clear
3:35 AM 55.6 °F - 38.3 °F 52% 29.84 in 10.0 mi South 15.0 mph 20.7 mph N/A   Clear
3:55 AM 55.8 °F - 38.3 °F 52% 29.83 in 10.0 mi South 15.0 mph - N/A   Clear
4:15 AM 55.2 °F - 37.9 °F 52% 29.82 in 10.0 mi South 15.0 mph 20.7 mph N/A   Scattered Clouds
4:35 AM 54.5 °F - 37.9 °F 54% 29.82 in 10.0 mi South 13.8 mph 18.4 mph N/A   Scattered Clouds
4:55 AM 54.0 °F - 38.3 °F 55% 29.82 in 10.0 mi South 12.7 mph - N/A   Clear
5:15 AM 53.2 °F - 38.3 °F 57% 29.81 in 10.0 mi South 11.5 mph - N/A   Clear
5:35 AM 52.7 °F - 38.3 °F 58% 29.81 in 10.0 mi South 10.4 mph - N/A   Clear
5:55 AM 52.3 °F - 38.5 °F 59% 29.81 in 10.0 mi South 10.4 mph - N/A   Clear
6:15 AM 52.7 °F - 39.0 °F 60% 29.80 in 10.0 mi South 11.5 mph - N/A   Clear
6:35 AM 53.2 °F - 39.2 °F 59% 29.79 in 10.0 mi South 11.5 mph - N/A   Clear
6:55 AM 53.1 °F - 39.6 °F 60% 29.79 in 10.0 mi South 12.7 mph - N/A   Clear
7:15 AM 53.6 °F - 39.9 °F 60% 29.80 in 10.0 mi South 12.7 mph - N/A   Clear
7:35 AM 54.1 °F - 40.5 °F 60% 29.79 in 10.0 mi South 13.8 mph 18.4 mph N/A   Clear
7:55 AM 55.8 °F - 41.2 °F 58% 29.79 in 10.0 mi South 16.1 mph 20.7 mph N/A   Clear
8:15 AM 55.8 °F - 41.4 °F 58% 29.79 in 10.0 mi South 13.8 mph 21.9 mph N/A   Clear
8:35 AM 56.5 °F - 41.9 °F 58% 29.79 in 10.0 mi South 15.0 mph - N/A   Clear
8:55 AM 57.4 °F - 42.4 °F 57% 29.79 in 10.0 mi South 17.3 mph 20.7 mph N/A   Clear
9:15 AM 57.6 °F - 43.0 °F 58% 29.79 in 10.0 mi South 15.0 mph 21.9 mph N/A   Clear
9:35 AM 58.5 °F - 43.5 °F 58% 29.79 in 10.0 mi SSW 15.0 mph - N/A   Clear
9:55 AM 59.2 °F - 44.1 °F 57% 29.80 in 10.0 mi South 15.0 mph 18.4 mph N/A   Clear
10:15 AM 59.2 °F - 44.6 °F 58% 29.79 in 10.0 mi South 13.8 mph - N/A   Clear
10:35 AM 59.9 °F - 44.6 °F 57% 29.79 in 10.0 mi South 15.0 mph 19.6 mph N/A   Clear
10:55 AM 60.6 °F - 45.7 °F 58% 29.78 in 10.0 mi SSW 15.0 mph - N/A   Clear
11:15 AM 62.8 °F - 46.4 °F 55% 29.77 in 10.0 mi SSW 18.4 mph 24.2 mph N/A   Clear
11:35 AM 63.5 °F - 46.8 °F 54% 29.77 in 10.0 mi SSW 18.4 mph 24.2 mph N/A   Clear
11:55 AM 63.1 °F - 46.8 °F 55% 29.76 in 10.0 mi SSW 15.0 mph 23.0 mph N/A   Clear
12:15 PM 65.5 °F - 48.2 °F 54% 29.75 in 10.0 mi SSW 13.8 mph - N/A   Clear
12:35 PM 68.4 °F - 48.9 °F 50% 29.75 in 10.0 mi SW 24.2 mph 32.2 mph N/A   Clear
12:55 PM 68.2 °F - 48.9 °F 50% 29.74 in 10.0 mi SW 19.6 mph 28.8 mph N/A   Clear
1:15 PM 67.5 °F - 49.5 °F 52% 29.75 in 10.0 mi SW 12.7 mph 23.0 mph N/A   Clear
1:35 PM 67.3 °F - 48.7 °F 51% 29.77 in 10.0 mi WSW 19.6 mph 29.9 mph N/A   Clear
1:55 PM 67.1 °F - 48.4 °F 51% 29.78 in 10.0 mi WSW 18.4 mph 27.6 mph N/A   Clear
2:15 PM 67.3 °F - 45.1 °F 45% 29.79 in 10.0 mi West 16.1 mph 27.6 mph N/A   Clear
2:35 PM 66.7 °F - 41.7 °F 40% 29.81 in 10.0 mi West 21.9 mph 28.8 mph N/A   Clear
2:55 PM 65.3 °F - 36.5 °F 34% 29.82 in 10.0 mi West 20.7 mph 29.9 mph N/A   Clear
3:15 PM 63.5 °F - 36.9 °F 37% 29.84 in 10.0 mi West 20.7 mph 27.6 mph N/A   Clear
3:35 PM 61.7 °F - 37.6 °F 41% 29.86 in 10.0 mi NW 17.3 mph 26.5 mph N/A   Clear
3:55 PM 61.0 °F - 38.8 °F 44% 29.87 in 10.0 mi WNW 24.2 mph 28.8 mph N/A   Clear
4:15 PM 58.3 °F - 38.1 °F 47% 29.90 in 10.0 mi WNW 19.6 mph 29.9 mph N/A   Clear
4:35 PM 55.9 °F - 37.4 °F 50% 29.93 in 10.0 mi WNW 27.6 mph 35.7 mph N/A   Clear
4:55 PM 53.2 °F - 37.0 °F 54% 29.96 in 10.0 mi WNW 18.4 mph 29.9 mph N/A   Clear
5:15 PM 52.3 °F - 36.5 °F 55% 29.98 in 10.0 mi NW 23.0 mph 28.8 mph N/A   Clear
5:35 PM 51.3 °F - 36.5 °F 57% 30.00 in 10.0 mi WNW 16.1 mph 23.0 mph N/A   Clear
5:55 PM 50.4 °F - 36.1 °F 58% 30.02 in 10.0 mi NW 15.0 mph 21.9 mph N/A   Clear
6:15 PM 49.5 °F - 35.8 °F 59% 30.03 in 10.0 mi NW 10.4 mph 18.4 mph N/A   Clear
6:35 PM 48.4 °F - 35.6 °F 61% 30.04 in 10.0 mi NW 12.7 mph - N/A   Clear
6:55 PM 47.5 °F - 34.9 °F 62% 30.06 in 10.0 mi NW 15.0 mph 23.0 mph N/A   Clear
7:15 PM 45.9 °F 40.4 °F 34.3 °F 64% 30.07 in 10.0 mi NW 11.5 mph - N/A   Clear
7:35 PM 45.0 °F 39.3 °F 34.2 °F 66% 30.08 in 10.0 mi NW 11.5 mph 18.4 mph N/A   Clear
7:55 PM 43.9 °F 39.3 °F 34.2 °F 69% 30.09 in 10.0 mi WNW 8.1 mph - N/A   Clear
8:15 PM 43.0 °F 36.8 °F 34.3 °F 72% 30.11 in 10.0 mi WNW 11.5 mph - N/A   Clear
8:35 PM 43.2 °F 35.6 °F 34.2 °F 71% 30.12 in 10.0 mi WNW 16.1 mph 21.9 mph N/A   Clear
8:55 PM 42.6 °F 35.2 °F 34.0 °F 71% 30.13 in 10.0 mi WNW 15.0 mph 20.7 mph N/A   Clear
9:15 PM 42.4 °F 35.3 °F 34.0 °F 72% 30.13 in 10.0 mi WNW 13.8 mph - N/A   Clear
9:35 PM 41.5 °F 34.6 °F 33.8 °F 74% 30.14 in 10.0 mi WNW 12.7 mph 17.3 mph N/A   Clear
9:55 PM 41.4 °F 32.7 °F 33.1 °F 72% 30.15 in 10.0 mi WNW 18.4 mph 23.0 mph N/A   Clear
10:15 PM 41.5 °F 32.9 °F 32.2 °F 69% 30.15 in 10.0 mi WNW 18.4 mph - N/A   Clear
10:35 PM 41.5 °F 33.2 °F 31.8 °F 68% 30.15 in 10.0 mi WNW 17.3 mph 21.9 mph N/A   Clear
10:55 PM 41.0 °F 33.9 °F 31.1 °F 68% 30.15 in 10.0 mi WNW 12.7 mph - N/A   Clear
11:15 PM 39.4 °F 32.3 °F 31.1 °F 72% 30.15 in 10.0 mi WNW 11.5 mph - N/A   Clear
11:35 PM 38.5 °F 31.6 °F 31.1 °F 75% 30.16 in 10.0 mi West 10.4 mph - N/A   Clear
11:55 PM 38.3 °F 30.9 °F 31.1 °F 75% 30.16 in 10.0 mi West 11.5 mph - N/A   Clear